Time;durP1;ratioP1;P1;durP2;ratioP2;P2;SDS_P1;SDS_P2;PMS_P1;PMS_P2;Temp;Humidity;BMP_temperature;BMP_pressure;BME280_temperature;BME280_humidity;BME280_pressure;Samples;Min_cycle;Max_cycle;Signal;HPM_P1;HPM_P2
2022/12/06 00:01:43;;;;;;;61.25;24.48;;;8.00;73.70;;;;;;7387360;19;20026;-84
2022/12/06 00:04:14;;;;;;;55.00;25.52;;;7.90;73.90;;;;;;7379546;19;20014;-84
2022/12/06 00:06:46;;;;;;;54.70;25.42;;;7.90;74.10;;;;;;7380569;19;20445;-84
2022/12/06 00:09:20;;;;;;;58.95;27.00;;;7.80;74.50;;;;;;7400837;19;20048;-84
2022/12/06 00:11:52;;;;;;;58.88;26.23;;;7.80;74.70;;;;;;7377466;19;20326;-84
2022/12/06 00:14:22;;;;;;;53.88;24.08;;;7.80;74.80;;;;;;7375983;19;20103;-86
2022/12/06 00:16:51;;;;;;;53.95;23.38;;;7.80;74.80;;;;;;7376067;19;20043;-85
2022/12/06 00:19:23;;;;;;;48.38;22.60;;;7.80;74.70;;;;;;7376082;19;20485;-85
2022/12/06 00:21:53;;;;;;;63.78;24.65;;;7.80;74.40;;;;;;7375747;19;20023;-84
2022/12/06 00:24:23;;;;;;;55.13;24.20;;;7.80;74.20;;;;;;7396935;19;20015;-85
2022/12/06 00:26:55;;;;;;;54.78;23.42;;;7.70;74.10;;;;;;7376958;19;20015;-85
2022/12/06 00:29:25;;;;;;;55.92;25.30;;;7.70;74.10;;;;;;7378828;19;20466;-84
2022/12/06 00:31:54;;;;;;;49.72;22.10;;;7.70;74.20;;;;;;7378183;19;20038;-85
2022/12/06 00:34:23;;;;;;;48.70;22.33;;;7.70;74.30;;;;;;7376785;19;20346;-84
2022/12/06 00:36:52;;;;;;;51.20;22.98;;;7.70;74.40;;;;;;7375439;19;20014;-85
2022/12/06 00:39:21;;;;;;;54.92;23.70;;;7.70;74.10;;;;;;7397257;19;20052;-84
2022/12/06 00:41:50;;;;;;;57.70;24.23;;;7.70;74.10;;;;;;7374145;19;20014;-84
2022/12/06 00:44:22;;;;;;;57.47;23.08;;;7.60;74.10;;;;;;7375544;19;20039;-84
2022/12/06 00:46:51;;;;;;;55.65;22.90;;;7.60;74.00;;;;;;7377802;19;20015;-85
2022/12/06 00:49:20;;;;;;;48.83;22.27;;;7.70;74.10;;;;;;7377802;19;20054;-85
2022/12/06 00:51:49;;;;;;;51.80;21.83;;;7.70;73.90;;;;;;7377022;19;20026;-86
2022/12/06 00:54:18;;;;;;;49.80;23.00;;;7.70;73.70;;;;;;7398938;19;20024;-87
2022/12/06 00:56:47;;;;;;;55.05;21.42;;;7.70;73.30;;;;;;7379191;19;20018;-87
2022/12/06 00:59:16;;;;;;;51.58;22.67;;;7.70;73.20;;;;;;7377763;19;20042;-87
2022/12/06 01:01:47;;;;;;;55.05;23.85;;;7.60;72.80;;;;;;7373465;19;20026;-86
2022/12/06 01:04:16;;;;;;;;;;;7.50;73.00;;;;;;7374951;19;20476;-87
2022/12/06 01:06:45;;;;;;;47.63;22.67;;;7.50;73.00;;;;;;7375694;19;19943;-87
2022/12/06 01:09:14;;;;;;;57.65;22.83;;;7.50;73.40;;;;;;7397236;19;20437;-88
2022/12/06 01:11:43;;;;;;;49.95;20.90;;;7.40;73.80;;;;;;7374772;19;20035;-88
2022/12/06 01:14:12;;;;;;;53.33;22.20;;;7.40;73.80;;;;;;7372233;19;20019;-86
2022/12/06 01:16:40;;;;;;;54.75;23.42;;;7.50;73.80;;;;;;7374871;19;20014;-85
2022/12/06 01:19:14;;;;;;;48.92;22.17;;;7.50;73.60;;;;;;7376012;19;20010;-86
2022/12/06 01:21:43;;;;;;;54.80;24.67;;;7.50;73.70;;;;;;7380023;19;20353;-84
2022/12/06 01:24:11;;;;;;;56.03;25.08;;;7.50;73.50;;;;;;7401931;19;20327;-76
2022/12/06 01:26:40;;;;;;;59.42;23.33;;;7.40;73.10;;;;;;7369865;19;20489;-76
2022/12/06 01:29:09;;;;;;;54.08;23.73;;;7.40;73.30;;;;;;7370110;19;20066;-76
2022/12/06 01:31:38;;;;;;;51.92;24.40;;;7.40;73.80;;;;;;7370774;19;20022;-76
2022/12/06 01:34:07;;;;;;;53.88;24.77;;;7.40;73.60;;;;;;7368477;19;20505;-77
2022/12/06 01:36:38;;;;;;;57.38;25.25;;;7.40;73.50;;;;;;7389480;19;20121;-77
2022/12/06 01:39:09;;;;;;;55.80;25.80;;;7.30;73.30;;;;;;7370850;19;20417;-77
2022/12/06 01:41:39;;;;;;;62.50;24.35;;;7.40;73.50;;;;;;7368907;19;20022;-76
2022/12/06 01:44:08;;;;;;;55.25;23.85;;;7.30;73.50;;;;;;7370522;19;20010;-76
2022/12/06 01:46:41;;;;;;;55.83;24.73;;;7.40;73.80;;;;;;7370155;19;20009;-76
2022/12/06 01:49:23;;;;;;;56.97;23.75;;;7.40;73.90;;;;;;7371331;19;20736;-76
2022/12/06 01:52:00;;;;;;;60.45;24.90;;;7.40;73.90;;;;;;7369260;19;20486;-75
2022/12/06 01:54:30;;;;;;;55.47;24.42;;;7.50;73.90;;;;;;7388813;19;20113;-76
2022/12/06 01:57:00;;;;;;;56.90;24.67;;;7.60;73.80;;;;;;7367281;19;20088;-76
2022/12/06 01:59:30;;;;;;;59.78;25.83;;;7.60;73.50;;;;;;7367984;19;20031;-76
2022/12/06 02:01:59;;;;;;;52.85;24.67;;;7.60;73.50;;;;;;7370175;19;20099;-76
2022/12/06 02:04:30;;;;;;;61.55;24.50;;;7.60;73.70;;;;;;7368541;19;20135;-76
2022/12/06 02:07:02;;;;;;;54.80;24.35;;;7.60;73.60;;;;;;7367703;19;20347;-76
2022/12/06 02:09:32;;;;;;;60.90;25.00;;;7.70;73.80;;;;;;7391247;19;20022;-76
2022/12/06 02:12:01;;;;;;;55.53;25.05;;;7.70;73.40;;;;;;7368536;19;20014;-76
2022/12/06 02:14:34;;;;;;;50.65;25.20;;;7.70;73.20;;;;;;7366215;19;20078;-76
2022/12/06 02:17:22;;;;;;;55.47;25.08;;;7.70;74.10;;;;;;7368038;19;20014;-76
2022/12/06 02:20:06;;;;;;;62.65;25.77;;;7.60;73.30;;;;;;7369989;19;20096;-77
2022/12/06 02:23:10;;;;;;;57.88;25.02;;;7.60;73.40;;;;;;7369426;19;20018;-77
2022/12/06 02:26:05;;;;;;;53.30;24.65;;;7.70;73.30;;;;;;7369818;19;20006;-77
2022/12/06 02:28:58;;;;;;;61.70;25.15;;;7.70;73.50;;;;;;7370783;19;20036;-76
2022/12/06 02:31:33;;;;;;;56.88;24.10;;;7.70;73.60;;;;;;7369090;19;20010;-76
2022/12/06 02:34:07;;;;;;;50.85;23.13;;;7.70;73.50;;;;;;7367349;19;20549;-77
2022/12/06 02:36:43;;;;;;;58.30;24.30;;;7.80;73.40;;;;;;7387779;19;20022;-76
2022/12/06 02:39:17;;;;;;;62.42;26.48;;;7.80;73.30;;;;;;7369228;19;20081;-77
2022/12/06 02:41:51;;;;;;;57.15;25.02;;;7.80;73.20;;;;;;7374208;19;20014;-76
2022/12/06 02:44:26;;;;;;;59.75;26.17;;;7.80;73.10;;;;;;7377261;19;20094;-76
2022/12/06 02:46:59;;;;;;;61.38;24.67;;;7.70;73.30;;;;;;7377220;19;20725;-76
2022/12/06 02:49:32;;;;;;;55.83;24.80;;;7.80;73.50;;;;;;7374815;19;20035;-76
2022/12/06 02:52:02;;;;;;;54.40;26.00;;;7.80;73.10;;;;;;7374703;19;20018;-76
2022/12/06 02:54:33;;;;;;;55.30;24.58;;;7.80;72.90;;;;;;7395272;19;20099;-76
2022/12/06 02:57:01;;;;;;;60.80;25.95;;;7.70;73.00;;;;;;7376235;19;20445;-76
2022/12/06 02:59:30;;;;;;;60.75;25.67;;;7.70;73.20;;;;;;7375781;19;20322;-76
2022/12/06 03:02:04;;;;;;;60.10;24.42;;;7.70;73.30;;;;;;7375028;19;20015;-76
2022/12/06 03:04:51;;;;;;;61.13;24.77;;;7.80;73.50;;;;;;7375325;19;20024;-76
2022/12/06 03:07:40;;;;;;;57.53;24.17;;;7.80;73.80;;;;;;7373706;19;20453;-76
2022/12/06 03:10:34;;;;;;;61.00;25.40;;;7.80;74.10;;;;;;7373945;19;20085;-76
2022/12/06 03:13:14;;;;;;;54.10;23.67;;;7.80;73.60;;;;;;7371626;19;20018;-76
2022/12/06 03:15:49;;;;;;;59.72;24.65;;;7.80;73.60;;;;;;7372150;19;20022;-75
2022/12/06 03:18:31;;;;;;;59.78;24.92;;;7.80;73.90;;;;;;7396590;19;20656;-76
2022/12/06 03:21:02;;;;;;;;;;;7.80;73.90;;;;;;7375418;19;20034;-76
2022/12/06 03:23:34;;;;;;;55.33;23.90;;;7.90;73.80;;;;;;7374230;19;20365;-76
2022/12/06 03:26:05;;;;;;;54.58;24.70;;;7.80;73.40;;;;;;7371578;19;20044;-76
2022/12/06 03:28:39;;;;;;;61.63;26.30;;;7.90;73.50;;;;;;7372225;19;20383;-75
2022/12/06 03:31:15;;;;;;;53.83;24.80;;;7.80;73.30;;;;;;7372400;19;20078;-76
2022/12/06 03:33:51;;;;;;;61.42;26.40;;;7.80;73.60;;;;;;7371559;19;20026;-76
2022/12/06 03:36:22;;;;;;;54.95;26.08;;;7.80;73.80;;;;;;7394934;19;20098;-75
2022/12/06 03:38:56;;;;;;;61.40;26.70;;;7.90;74.00;;;;;;7374419;19;20106;-76
2022/12/06 03:41:28;;;;;;;54.75;25.10;;;7.90;74.10;;;;;;7374395;19;20033;-76
2022/12/06 03:43:57;;;;;;;62.50;25.40;;;7.90;74.10;;;;;;7373356;19;20018;-76
2022/12/06 03:46:31;;;;;;;58.03;25.40;;;8.00;74.30;;;;;;7373827;19;20526;-76
2022/12/06 03:49:08;;;;;;;50.22;24.05;;;8.00;74.00;;;;;;7374354;19;20019;-75
2022/12/06 03:51:38;;;;;;;55.08;24.23;;;8.00;73.80;;;;;;7391924;19;20018;-76
2022/12/06 03:54:09;;;;;;;58.38;25.88;;;8.00;73.80;;;;;;7392404;19;20571;-76
2022/12/06 03:56:38;;;;;;;54.95;24.80;;;8.00;74.00;;;;;;7374021;19;20031;-76
2022/12/06 03:59:08;;;;;;;55.40;24.77;;;8.00;74.00;;;;;;7373755;19;20090;-76
2022/12/06 04:01:37;;;;;;;58.28;24.92;;;8.00;74.00;;;;;;7372841;19;20022;-76
2022/12/06 04:04:09;;;;;;;58.35;25.63;;;7.90;73.80;;;;;;7371384;19;20086;-76
2022/12/06 04:06:38;;;;;;;57.00;25.00;;;7.90;73.80;;;;;;7383070;19;20648;-77
2022/12/06 04:11:51;;;;;;;62.33;26.10;;;8.00;74.10;;;;;;7372851;19;20432;-76
2022/12/06 04:14:20;;;;;;;54.88;24.88;;;8.00;74.20;;;;;;7371745;19;20021;-76
2022/12/06 04:19:32;;;;;;;52.13;25.17;;;8.00;74.40;;;;;;7373727;19;20014;-76
2022/12/06 04:24:53;;;;;;;54.42;23.48;;;8.10;74.40;;;;;;7371980;19;19929;-76
2022/12/06 04:40:50;;;;;;;51.17;23.83;;;8.00;74.70;;;;;;7372978;19;20023;-76
2022/12/06 04:46:03;;;;;;;49.15;24.02;;;8.10;74.90;;;;;;7371187;19;20362;-76
2022/12/06 04:48:31;;;;;;;53.85;25.05;;;8.10;75.00;;;;;;7390551;19;20019;-76
2022/12/06 04:51:03;;;;;;;55.92;25.45;;;8.10;74.90;;;;;;7372210;19;20121;-76
2022/12/06 04:53:31;;;;;;;;;;;8.10;74.90;;;;;;7370988;19;20089;-77
2022/12/06 04:56:00;;;;;;;55.42;23.10;;;8.20;75.00;;;;;;7372127;19;20015;-75
2022/12/06 04:58:29;;;;;;;52.83;23.25;;;8.20;74.90;;;;;;7370916;19;20018;-75
2022/12/06 05:00:57;;;;;;;55.85;23.75;;;8.20;75.20;;;;;;7368306;19;20032;-76
2022/12/06 05:03:26;;;;;;;57.72;25.45;;;8.20;75.10;;;;;;7387669;19;20018;-75
2022/12/06 05:05:55;;;;;;;61.33;25.50;;;8.20;75.20;;;;;;7368174;19;20088;-75
2022/12/06 05:08:26;;;;;;;49.42;23.92;;;8.20;75.30;;;;;;7373207;19;20844;-78
2022/12/06 05:10:55;;;;;;;;;;;8.20;75.30;;;;;;7372298;19;20528;-76
2022/12/06 05:13:24;;;;;;;56.55;22.98;;;8.30;75.40;;;;;;7372218;19;19922;-76
2022/12/06 05:15:54;;;;;;;54.22;24.88;;;8.30;75.30;;;;;;7369867;19;20503;-76
2022/12/06 05:18:23;;;;;;;54.33;24.55;;;8.30;75.20;;;;;;7392120;19;20037;-76
2022/12/06 05:20:52;;;;;;;58.97;24.58;;;8.30;75.20;;;;;;7368134;19;20652;-76
2022/12/06 05:23:21;;;;;;;52.63;24.85;;;8.30;75.20;;;;;;7371422;19;20494;-76
2022/12/06 05:25:52;;;;;;;53.80;24.83;;;8.30;75.00;;;;;;7369774;19;20081;-75
2022/12/06 05:28:21;;;;;;;52.08;24.25;;;8.30;75.10;;;;;;7371324;19;20022;-75
2022/12/06 05:30:49;;;;;;;53.80;24.65;;;8.30;75.20;;;;;;7369059;19;20442;-76
2022/12/06 05:33:18;;;;;;;56.40;24.15;;;8.30;75.20;;;;;;7390657;19;20402;-76
2022/12/06 05:35:47;;;;;;;58.70;26.17;;;8.30;75.30;;;;;;7366731;19;20471;-76
2022/12/06 05:38:16;;;;;;;55.15;24.02;;;8.30;75.30;;;;;;7369967;19;20022;-77
2022/12/06 05:40:45;;;;;;;66.60;25.58;;;8.30;75.30;;;;;;7370004;19;20062;-77
2022/12/06 05:43:17;;;;;;;54.15;24.65;;;8.30;75.40;;;;;;7370601;19;20475;-77
2022/12/06 05:45:46;;;;;;;63.22;25.40;;;8.30;75.20;;;;;;7371332;19;20035;-77
2022/12/06 05:48:15;;;;;;;60.05;26.45;;;8.30;75.20;;;;;;7389077;19;20077;-77
2022/12/06 05:50:44;;;;;;;57.20;25.92;;;8.30;75.40;;;;;;7369256;19;20018;-77
2022/12/06 05:53:15;;;;;;;59.38;25.88;;;8.30;75.30;;;;;;7370796;19;20133;-77
2022/12/06 05:55:45;;;;;;;61.08;26.10;;;8.30;75.50;;;;;;7368531;19;20574;-77
2022/12/06 05:58:17;;;;;;;58.92;26.55;;;8.30;75.80;;;;;;7369930;19;20010;-77
2022/12/06 06:00:49;;;;;;;68.35;26.02;;;8.20;75.50;;;;;;7366695;19;20597;-77
2022/12/06 06:03:18;;;;;;;58.83;26.20;;;8.30;75.90;;;;;;7392372;19;20025;-77
2022/12/06 06:05:52;;;;;;;58.67;26.25;;;8.30;76.10;;;;;;7368900;19;20023;-77
2022/12/06 06:08:20;;;;;;;56.45;24.75;;;8.30;76.20;;;;;;7369827;19;20027;-77
2022/12/06 06:10:49;;;;;;;62.53;25.17;;;8.30;76.30;;;;;;7369606;19;20037;-76
2022/12/06 06:13:21;;;;;;;57.70;25.13;;;8.30;76.40;;;;;;7370468;19;20011;-76
2022/12/06 06:15:50;;;;;;;53.22;24.10;;;8.40;76.30;;;;;;7369410;19;20025;-77
2022/12/06 06:18:19;;;;;;;55.90;25.02;;;8.40;76.40;;;;;;7398368;19;20755;-75
2022/12/06 06:20:51;;;;;;;53.40;25.65;;;8.40;76.30;;;;;;7376171;19;20155;-77
2022/12/06 06:23:21;;;;;;;59.28;25.50;;;8.40;76.40;;;;;;7377134;19;20011;-76
2022/12/06 06:25:50;;;;;;;57.90;25.35;;;8.40;76.50;;;;;;7376419;19;20021;-78
2022/12/06 06:28:22;;;;;;;61.35;24.40;;;8.40;76.50;;;;;;7374691;19;20025;-77
2022/12/06 06:30:51;;;;;;;59.97;25.70;;;8.40;76.60;;;;;;7374422;19;20015;-77
2022/12/06 06:33:20;;;;;;;54.75;25.98;;;8.40;76.50;;;;;;7398054;19;20026;-77
2022/12/06 06:35:49;;;;;;;56.75;24.70;;;8.40;76.50;;;;;;7374856;19;20039;-78
2022/12/06 06:38:18;;;;;;;64.03;26.23;;;8.40;77.20;;;;;;7374648;19;20023;-76
2022/12/06 06:40:46;;;;;;;71.93;29.05;;;8.40;76.60;;;;;;7375360;19;20374;-77
2022/12/06 06:43:21;;;;;;;63.50;27.50;;;8.40;76.50;;;;;;7376237;19;20038;-77
2022/12/06 06:45:59;;;;;;;66.45;28.75;;;8.40;76.40;;;;;;7374926;19;20029;-78
2022/12/06 06:48:31;;;;;;;56.97;26.48;;;8.40;76.30;;;;;;7396477;19;20025;-78
2022/12/06 06:51:04;;;;;;;63.92;27.90;;;8.40;76.40;;;;;;7374181;19;20014;-76
2022/12/06 06:53:34;;;;;;;60.78;25.85;;;8.40;76.60;;;;;;7375103;19;20025;-75
2022/12/06 06:56:02;;;;;;;58.78;25.23;;;8.40;76.60;;;;;;7374548;19;20014;-75
2022/12/06 06:58:31;;;;;;;65.57;27.92;;;8.50;76.70;;;;;;7374712;19;20089;-75
2022/12/06 07:01:05;;;;;;;61.03;26.83;;;8.50;76.70;;;;;;7374083;19;20105;-75
2022/12/06 07:03:34;;;;;;;62.92;26.33;;;8.50;76.70;;;;;;7394950;19;20449;-75
2022/12/06 07:06:05;;;;;;;67.70;27.55;;;8.50;76.70;;;;;;7374272;19;20011;-75
2022/12/06 07:08:34;;;;;;;76.93;26.23;;;8.50;76.80;;;;;;7374314;19;20088;-76
2022/12/06 07:11:03;;;;;;;64.25;26.15;;;8.50;76.90;;;;;;7376456;19;20074;-76
2022/12/06 07:13:33;;;;;;;67.10;25.95;;;8.50;76.90;;;;;;7372511;19;20126;-76
2022/12/06 07:16:05;;;;;;;62.28;27.15;;;8.50;76.90;;;;;;7374842;19;20126;-77
2022/12/06 07:18:34;;;;;;;65.45;27.98;;;8.50;76.90;;;;;;7395561;19;20019;-76
2022/12/06 07:21:05;;;;;;;65.18;27.05;;;8.50;76.60;;;;;;7375199;19;20094;-76
2022/12/06 07:23:35;;;;;;;65.93;28.42;;;8.50;76.70;;;;;;7375519;19;20031;-77
2022/12/06 07:26:06;;;;;;;68.90;27.77;;;8.50;76.60;;;;;;7374015;19;20463;-77
2022/12/06 07:28:36;;;;;;;73.35;28.52;;;8.50;76.60;;;;;;7372362;19;20022;-77
2022/12/06 07:31:14;;;;;;;80.27;29.47;;;8.50;76.60;;;;;;7376106;19;20031;-76
2022/12/06 07:33:42;;;;;;;68.47;28.20;;;8.40;76.70;;;;;;7371650;19;20022;-76
2022/12/06 07:36:13;;;;;;;80.10;30.70;;;8.40;76.60;;;;;;7394644;19;20022;-76
2022/12/06 07:38:42;;;;;;;79.70;30.17;;;8.40;76.80;;;;;;7373230;19;20011;-76
2022/12/06 07:46:41;;;;;;;87.60;31.33;;;8.50;77.00;;;;;;7375452;19;20030;-79
2022/12/06 07:49:10;;;;;;;77.32;29.42;;;8.50;77.10;;;;;;7376467;19;20019;-79
2022/12/06 07:51:39;;;;;;;80.25;29.88;;;8.50;76.90;;;;;;7375102;19;20085;-78
2022/12/06 07:54:08;;;;;;;80.80;29.48;;;8.50;76.90;;;;;;7393956;19;20050;-78
2022/12/06 07:56:37;;;;;;;66.80;27.00;;;8.50;76.90;;;;;;7372335;19;20767;-78
2022/12/06 07:59:06;;;;;;;79.57;29.60;;;8.40;77.10;;;;;;7376245;19;20018;-79
2022/12/06 08:01:37;;;;;;;72.38;28.50;;;8.40;78.00;;;;;;7379035;19;20085;-78
2022/12/06 08:04:07;;;;;;;72.65;27.90;;;8.40;77.20;;;;;;7378502;19;20026;-78
2022/12/06 08:06:36;;;;;;;76.88;29.30;;;8.40;77.30;;;;;;7398696;19;20018;-79
2022/12/06 08:09:06;;;;;;;68.32;28.17;;;8.40;77.30;;;;;;7374446;19;20018;-77
2022/12/06 08:11:35;;;;;;;87.03;33.97;;;8.40;77.10;;;;;;7368040;19;20089;-78
2022/12/06 08:14:04;;;;;;;83.13;34.13;;;8.50;77.00;;;;;;7371134;19;20098;-80
2022/12/06 08:16:33;;;;;;;82.60;30.05;;;8.50;77.10;;;;;;7372164;19;20470;-78
2022/12/06 08:19:04;;;;;;;78.07;30.17;;;8.50;77.30;;;;;;7375501;19;20017;-79
2022/12/06 08:21:33;;;;;;;91.60;30.10;;;8.50;77.40;;;;;;7395470;19;20401;-79
2022/12/06 08:24:02;;;;;;;81.78;31.00;;;8.50;77.20;;;;;;7372807;19;20469;-79
2022/12/06 08:26:31;;;;;;;82.25;30.05;;;8.60;76.80;;;;;;7371443;19;20011;-78
2022/12/06 08:29:02;;;;;;;77.25;29.38;;;8.50;76.70;;;;;;7373554;19;20490;-79
2022/12/06 08:31:33;;;;;;;81.80;29.47;;;8.40;76.90;;;;;;7373686;19;20021;-79
2022/12/06 08:34:05;;;;;;;80.40;30.75;;;8.40;77.00;;;;;;7373652;19;20226;-80
2022/12/06 08:36:35;;;;;;;72.18;29.02;;;8.40;77.80;;;;;;7392615;19;20015;-79
2022/12/06 08:39:03;;;;;;;83.65;29.77;;;8.40;77.30;;;;;;7374512;19;20011;-79
2022/12/06 08:44:15;;;;;;;96.43;30.80;;;8.30;77.40;;;;;;7373991;19;20455;-80
2022/12/06 08:46:44;;;;;;;92.07;31.67;;;8.30;77.80;;;;;;7372673;19;20185;-78
2022/12/06 08:49:17;;;;;;;90.93;31.90;;;8.20;78.10;;;;;;7373586;19;20426;-79
2022/12/06 08:51:47;;;;;;;89.95;31.10;;;8.20;78.20;;;;;;7370240;19;20098;-80
2022/12/06 08:54:17;;;;;;;97.10;32.85;;;8.30;78.30;;;;;;7392691;19;20082;-78
2022/12/06 08:56:46;;;;;;;105.70;31.00;;;8.20;78.20;;;;;;7371302;19;20013;-81
2022/12/06 08:59:15;;;;;;;101.68;32.35;;;8.20;78.20;;;;;;7375134;19;20085;-79
2022/12/06 09:01:45;;;;;;;120.43;32.58;;;8.30;78.30;;;;;;7374895;19;20020;-80
2022/12/06 09:04:17;;;;;;;89.13;31.17;;;8.20;78.30;;;;;;7380061;19;20010;-81
2022/12/06 09:06:46;;;;;;;;;;;8.30;78.30;;;;;;7389382;19;20010;-80
2022/12/06 09:09:16;;;;;;;100.45;31.52;;;8.30;78.40;;;;;;7412248;19;19918;-80
2022/12/06 09:11:46;;;;;;;95.43;30.42;;;8.40;78.30;;;;;;7382121;19;20455;-80
2022/12/06 09:14:17;;;;;;;110.28;32.50;;;8.40;78.40;;;;;;7378668;19;20023;-79
2022/12/06 09:16:46;;;;;;;104.57;32.65;;;8.40;78.40;;;;;;7374214;19;20114;-80
2022/12/06 09:19:18;;;;;;;95.43;31.80;;;8.50;78.30;;;;;;7374735;19;20070;-78
2022/12/06 09:21:46;;;;;;;96.65;31.80;;;8.50;78.30;;;;;;7371189;19;20014;-77
2022/12/06 09:24:17;;;;;;;95.50;32.88;;;8.50;78.20;;;;;;7391295;19;20452;-77
2022/12/06 09:26:46;;;;;;;107.20;32.83;;;8.50;78.30;;;;;;7371675;19;20010;-78
2022/12/06 09:29:17;;;;;;;100.22;31.13;;;8.50;78.40;;;;;;7372519;19;20360;-79
2022/12/06 09:31:46;;;;;;;97.13;30.80;;;8.50;78.20;;;;;;7372383;19;20021;-78
2022/12/06 09:34:18;;;;;;;112.32;33.42;;;8.60;78.40;;;;;;7371739;19;20014;-78
2022/12/06 09:36:51;;;;;;;110.82;33.25;;;8.60;78.30;;;;;;7370019;19;20436;-78
2022/12/06 09:39:24;;;;;;;104.95;32.55;;;8.60;78.20;;;;;;7392355;19;20086;-78
2022/12/06 09:42:24;;;;;;;98.82;34.20;;;8.60;78.30;;;;;;7369889;19;20508;-78
2022/12/06 09:45:20;;;;;;;102.13;33.05;;;8.60;78.50;;;;;;7371988;19;20477;-79
2022/12/06 09:48:00;;;;;;;102.78;33.75;;;8.60;78.40;;;;;;7372091;19;20099;-80
2022/12/06 09:50:41;;;;;;;110.30;33.10;;;8.60;78.40;;;;;;7367638;19;20745;-79
2022/12/06 09:53:19;;;;;;;106.07;32.28;;;8.50;78.60;;;;;;7370581;19;20031;-79
2022/12/06 09:55:58;;;;;;;103.90;33.78;;;8.50;78.80;;;;;;7369190;19;20092;-79
2022/12/06 09:58:40;;;;;;;105.18;33.17;;;8.50;78.90;;;;;;7371844;19;20015;-78
2022/12/06 10:01:21;;;;;;;100.80;33.60;;;8.60;78.90;;;;;;7370684;19;20036;-78
2022/12/06 10:04:00;;;;;;;104.43;32.72;;;8.60;78.80;;;;;;7371719;19;20727;-80
2022/12/06 10:06:39;;;;;;;98.45;31.88;;;8.60;78.70;;;;;;7393006;19;20026;-77
2022/12/06 10:09:23;;;;;;;107.60;31.75;;;8.50;78.90;;;;;;7372100;19;20035;-78
2022/12/06 10:12:06;;;;;;;104.47;31.83;;;8.50;79.30;;;;;;7367177;19;20405;-78
2022/12/06 10:15:07;;;;;;;97.75;32.13;;;8.40;79.50;;;;;;7371630;19;20025;-79
2022/12/06 10:17:46;;;;;;;98.07;31.27;;;8.50;79.70;;;;;;7368860;19;20034;-79
2022/12/06 10:20:26;;;;;;;112.53;33.53;;;8.40;79.90;;;;;;7371252;19;20130;-78
2022/12/06 10:23:12;;;;;;;100.03;32.38;;;8.40;80.00;;;;;;7370862;19;20111;-78
2022/12/06 10:25:44;;;;;;;117.95;31.23;;;8.40;80.30;;;;;;7372760;19;20118;-79
2022/12/06 10:28:15;;;;;;;100.95;31.05;;;8.40;80.30;;;;;;7372443;19;20059;-78
2022/12/06 10:30:52;;;;;;;111.82;32.72;;;8.30;80.60;;;;;;7370981;19;20059;-78
2022/12/06 10:33:31;;;;;;;110.85;32.83;;;8.40;80.80;;;;;;7392486;19;20561;-78
2022/12/06 10:36:03;;;;;;;175.95;37.78;;;8.40;80.80;;;;;;7369707;19;20015;-78
2022/12/06 10:38:36;;;;;;;;;;;8.50;80.90;;;;;;7372506;19;20011;-78
2022/12/06 10:41:13;;;;;;;106.03;29.67;;;8.60;81.20;;;;;;7372528;19;20283;-80
2022/12/06 10:43:51;;;;;;;1999.90;371.83;;;8.60;81.10;;;;;;7372008;19;20081;-79
2022/12/06 10:49:25;;;;;;;101.55;29.25;;;8.60;81.90;;;;;;7364261;19;20014;-78
2022/12/06 10:52:01;;;;;;;108.10;28.23;;;8.50;81.30;;;;;;7366104;19;20565;-78
2022/12/06 10:54:39;;;;;;;90.50;28.55;;;8.50;81.30;;;;;;7391053;19;20347;-80
2022/12/06 10:57:13;;;;;;;85.45;27.67;;;8.50;81.30;;;;;;7368815;19;20428;-79
2022/12/06 10:59:50;;;;;;;1999.90;120.35;;;8.50;81.40;;;;;;7369084;19;20859;-80
2022/12/06 11:02:28;;;;;;;163.50;30.67;;;8.60;81.60;;;;;;7367238;19;20010;-79
2022/12/06 11:05:03;;;;;;;86.32;27.50;;;8.60;82.20;;;;;;7373162;19;20014;-78
2022/12/06 11:07:39;;;;;;;85.70;26.58;;;8.50;82.20;;;;;;7386403;19;20047;-79
2022/12/06 11:10:19;;;;;;;70.55;24.45;;;8.50;82.20;;;;;;7385450;19;20010;-79
2022/12/06 11:12:48;;;;;;;72.05;25.60;;;8.50;81.80;;;;;;7375172;19;20056;-82
2022/12/06 11:15:22;;;;;;;80.63;26.70;;;8.50;81.80;;;;;;7398813;19;21266;-80
2022/12/06 11:17:57;;;;;;;348.10;35.83;;;8.50;81.60;;;;;;7374269;19;20171;-81
2022/12/06 11:20:28;;;;;;;79.63;24.45;;;8.50;81.80;;;;;;7373537;19;20018;-80
2022/12/06 11:23:07;;;;;;;82.43;24.00;;;8.50;82.10;;;;;;7371286;19;20097;-79
2022/12/06 11:25:45;;;;;;;85.93;25.90;;;8.50;82.10;;;;;;7372252;19;20022;-79
2022/12/06 11:28:25;;;;;;;61.78;22.48;;;8.60;82.70;;;;;;7377112;19;20033;-82
2022/12/06 11:30:57;;;;;;;72.72;24.17;;;8.60;81.40;;;;;;7378114;19;20031;-80
2022/12/06 11:33:32;;;;;;;69.25;23.63;;;8.50;81.30;;;;;;7402390;19;20023;-82
2022/12/06 11:36:04;;;;;;;67.30;22.38;;;8.60;81.30;;;;;;7381715;19;20018;-80
2022/12/06 11:38:34;;;;;;;75.75;24.05;;;8.60;81.20;;;;;;7383859;19;20014;-85
2022/12/06 11:41:09;;;;;;;65.55;22.52;;;8.70;81.10;;;;;;7397274;19;20011;-83
2022/12/06 11:43:39;;;;;;;67.82;23.23;;;8.80;81.30;;;;;;7393904;19;20054;-82
2022/12/06 11:46:12;;;;;;;55.22;22.23;;;8.80;81.00;;;;;;7384050;19;20014;-82
2022/12/06 11:48:41;;;;;;;63.17;22.65;;;8.80;81.00;;;;;;7376516;19;20051;-82
2022/12/06 11:51:17;;;;;;;57.15;21.65;;;8.90;81.20;;;;;;7394801;19;20022;-81
2022/12/06 11:53:57;;;;;;;63.00;22.25;;;8.90;81.10;;;;;;7378277;19;20018;-82
2022/12/06 11:56:30;;;;;;;133.88;24.83;;;9.00;80.90;;;;;;7379847;19;20026;-82
2022/12/06 11:59:05;;;;;;;57.55;22.92;;;8.90;81.40;;;;;;7381566;19;20044;-84
2022/12/06 12:01:43;;;;;;;72.70;22.88;;;9.00;81.50;;;;;;7383506;19;20017;-82
2022/12/06 12:04:38;;;;;;;56.88;22.33;;;9.00;80.80;;;;;;7378778;19;20022;-82
2022/12/06 12:07:14;;;;;;;66.63;23.25;;;9.00;80.50;;;;;;7382849;19;20029;-83
2022/12/06 12:09:52;;;;;;;66.88;24.08;;;9.00;80.50;;;;;;7385682;19;20086;-80
2022/12/06 12:13:42;;;;;;;67.53;23.17;;;9.00;80.60;;;;;;7397268;19;20035;-79
2022/12/06 12:15:19;;;;;;;75.70;24.58;;;9.10;80.50;;;;;;7373541;19;20016;-80
2022/12/06 12:17:50;;;;;;;74.55;25.48;;;9.10;80.20;;;;;;7371348;19;20018;-81
2022/12/06 12:20:23;;;;;;;74.47;25.77;;;9.10;80.70;;;;;;7375567;19;20063;-81
2022/12/06 12:23:00;;;;;;;81.45;27.17;;;9.10;80.80;;;;;;7372480;19;20473;-81
2022/12/06 12:25:32;;;;;;;81.50;27.33;;;9.10;80.80;;;;;;7375094;19;20019;-81
2022/12/06 12:28:04;;;;;;;82.47;26.73;;;9.10;80.70;;;;;;7377635;19;20019;-79
2022/12/06 12:30:35;;;;;;;79.95;26.95;;;9.10;80.70;;;;;;7403040;19;20052;-82
2022/12/06 12:33:17;;;;;;;79.15;27.58;;;9.10;80.90;;;;;;7400823;19;20010;-81
2022/12/06 12:35:48;;;;;;;77.18;27.48;;;9.20;80.80;;;;;;7397866;19;20044;-81
2022/12/06 12:38:23;;;;;;;86.93;28.27;;;9.10;81.60;;;;;;7385424;19;20003;-80
2022/12/06 12:40:55;;;;;;;85.00;27.83;;;9.10;81.70;;;;;;7377911;19;20370;-78
2022/12/06 12:43:32;;;;;;;101.90;31.48;;;9.20;81.70;;;;;;7372788;19;20433;-80
2022/12/06 12:46:16;;;;;;;105.13;31.52;;;9.20;81.40;;;;;;7367109;19;20106;-78
2022/12/06 12:48:48;;;;;;;111.43;31.33;;;9.20;81.30;;;;;;7368023;19;20037;-80
2022/12/06 12:51:34;;;;;;;162.80;34.80;;;9.10;81.30;;;;;;7394177;19;20038;-79
2022/12/06 12:54:05;;;;;;;109.38;33.65;;;9.10;81.90;;;;;;7378828;19;20430;-80
2022/12/06 12:56:37;;;;;;;138.82;35.83;;;9.10;81.70;;;;;;7375818;19;20015;-79
2022/12/06 12:59:16;;;;;;;117.25;34.63;;;9.20;81.50;;;;;;7376431;19;20023;-78
2022/12/06 13:01:48;;;;;;;112.68;35.42;;;9.10;81.40;;;;;;7375832;19;20081;-80
2022/12/06 13:04:26;;;;;;;125.40;35.83;;;9.10;81.60;;;;;;7383537;19;20055;-80
2022/12/06 13:06:59;;;;;;;125.60;36.22;;;9.00;81.70;;;;;;7402199;19;20022;-81
2022/12/06 13:09:33;;;;;;;368.92;47.38;;;9.10;81.70;;;;;;7419610;19;20026;-86
2022/12/06 13:12:07;;;;;;;124.18;35.17;;;9.10;82.20;;;;;;7389926;19;20426;-81
2022/12/06 13:14:42;;;;;;;113.72;38.15;;;9.10;82.20;;;;;;7403073;19;20014;-80
2022/12/06 13:17:15;;;;;;;142.77;37.45;;;9.10;82.20;;;;;;7405235;19;20011;-82
2022/12/06 13:19:48;;;;;;;145.10;39.58;;;9.20;82.00;;;;;;7404207;19;20025;-80
2022/12/06 13:22:22;;;;;;;135.13;38.80;;;9.30;82.00;;;;;;7390305;19;20014;-81
2022/12/06 13:24:59;;;;;;;142.02;40.50;;;9.30;81.70;;;;;;7402394;19;20050;-80
2022/12/06 13:27:31;;;;;;;147.55;39.75;;;9.30;81.70;;;;;;7420948;19;20019;-80
2022/12/06 13:30:06;;;;;;;132.70;40.30;;;9.40;81.60;;;;;;7405200;19;20014;-81
2022/12/06 13:32:42;;;;;;;135.88;40.38;;;9.40;81.50;;;;;;7390753;19;20473;-79
2022/12/06 13:35:25;;;;;;;136.60;40.63;;;9.30;81.30;;;;;;7384906;19;20332;-81
2022/12/06 13:37:56;;;;;;;146.32;39.58;;;9.30;81.30;;;;;;7379295;19;20024;-80
2022/12/06 13:40:47;;;;;;;140.90;43.38;;;9.30;81.40;;;;;;7376305;19;20049;-80